sensor_id;sensor_type;location;lat;lon;timestamp;pressure;altitude;pressure_sealevel;temperature;humidity
70198;BME280;57582;-34.876;138.628;2023-03-19T00:01:51;101385;;;22.72;53.43
70198;BME280;57582;-34.876;138.628;2023-03-19T00:04:51;101401;;;23.17;53.17
70198;BME280;57582;-34.876;138.628;2023-03-19T00:07:51;101402;;;23.20;52.53
70198;BME280;57582;-34.876;138.628;2023-03-19T00:10:51;101393;;;23.55;51.86
70198;BME280;57582;-34.876;138.628;2023-03-19T00:13:52;101404;;;23.68;51.08
70198;BME280;57582;-34.876;138.628;2023-03-19T00:16:52;101397;;;23.62;50.25
70198;BME280;57582;-34.876;138.628;2023-03-19T00:19:51;101407;;;23.31;50.20
70198;BME280;57582;-34.876;138.628;2023-03-19T00:22:51;101403;;;23.03;51.71
70198;BME280;57582;-34.876;138.628;2023-03-19T00:25:52;101411;;;23.29;51.03
70198;BME280;57582;-34.876;138.628;2023-03-19T00:28:51;101411;;;23.29;50.75
70198;BME280;57582;-34.876;138.628;2023-03-19T00:31:51;101404;;;23.56;50.52
70198;BME280;57582;-34.876;138.628;2023-03-19T00:34:51;101399;;;23.52;50.43
70198;BME280;57582;-34.876;138.628;2023-03-19T00:37:52;101393;;;23.86;49.89
70198;BME280;57582;-34.876;138.628;2023-03-19T00:40:51;101402;;;24.15;49.37
70198;BME280;57582;-34.876;138.628;2023-03-19T00:43:52;101408;;;24.22;48.02
70198;BME280;57582;-34.876;138.628;2023-03-19T00:46:51;101411;;;24.43;48.15
70198;BME280;57582;-34.876;138.628;2023-03-19T00:49:51;101392;;;24.75;46.92
70198;BME280;57582;-34.876;138.628;2023-03-19T00:52:52;101384;;;24.90;46.50
70198;BME280;57582;-34.876;138.628;2023-03-19T00:55:51;101395;;;24.85;46.61
70198;BME280;57582;-34.876;138.628;2023-03-19T00:58:51;101387;;;24.42;47.58
70198;BME280;57582;-34.876;138.628;2023-03-19T01:01:51;101404;;;24.61;48.45
70198;BME280;57582;-34.876;138.628;2023-03-19T01:04:51;101413;;;24.86;46.21
70198;BME280;57582;-34.876;138.628;2023-03-19T01:07:51;101411;;;24.62;46.88
70198;BME280;57582;-34.876;138.628;2023-03-19T01:10:51;101386;;;24.96;46.91
70198;BME280;57582;-34.876;138.628;2023-03-19T01:13:51;101375;;;25.25;47.01
70198;BME280;57582;-34.876;138.628;2023-03-19T01:16:51;101374;;;24.76;46.71
70198;BME280;57582;-34.876;138.628;2023-03-19T01:19:51;101374;;;24.81;47.00
70198;BME280;57582;-34.876;138.628;2023-03-19T01:22:51;101375;;;25.20;46.82
70198;BME280;57582;-34.876;138.628;2023-03-19T01:25:51;101390;;;25.54;45.22
70198;BME280;57582;-34.876;138.628;2023-03-19T01:28:52;101375;;;25.74;45.62
70198;BME280;57582;-34.876;138.628;2023-03-19T01:31:51;101377;;;25.64;46.20
70198;BME280;57582;-34.876;138.628;2023-03-19T01:34:51;101378;;;25.94;45.20
70198;BME280;57582;-34.876;138.628;2023-03-19T01:37:51;101367;;;26.21;44.61
70198;BME280;57582;-34.876;138.628;2023-03-19T01:40:51;101367;;;26.51;43.83
70198;BME280;57582;-34.876;138.628;2023-03-19T01:43:51;101359;;;26.78;42.93
70198;BME280;57582;-34.876;138.628;2023-03-19T01:46:51;101361;;;26.97;42.38
70198;BME280;57582;-34.876;138.628;2023-03-19T01:49:52;101357;;;27.09;43.30
70198;BME280;57582;-34.876;138.628;2023-03-19T01:52:51;101345;;;26.91;42.32
70198;BME280;57582;-34.876;138.628;2023-03-19T01:55:51;101357;;;26.45;42.56
70198;BME280;57582;-34.876;138.628;2023-03-19T01:58:52;101356;;;26.36;44.27
70198;BME280;57582;-34.876;138.628;2023-03-19T02:01:55;101354;;;26.33;43.96
70198;BME280;57582;-34.876;138.628;2023-03-19T02:04:52;101341;;;25.97;43.97
70198;BME280;57582;-34.876;138.628;2023-03-19T02:07:52;101350;;;26.01;45.07
70198;BME280;57582;-34.876;138.628;2023-03-19T02:10:51;101341;;;26.34;44.49
70198;BME280;57582;-34.876;138.628;2023-03-19T02:13:51;101334;;;26.73;43.42
70198;BME280;57582;-34.876;138.628;2023-03-19T02:16:51;101333;;;27.09;42.47
70198;BME280;57582;-34.876;138.628;2023-03-19T02:28:52;101325;;;26.82;42.26
70198;BME280;57582;-34.876;138.628;2023-03-19T02:31:51;101328;;;26.79;41.93
70198;BME280;57582;-34.876;138.628;2023-03-19T02:34:51;101321;;;27.13;42.67
70198;BME280;57582;-34.876;138.628;2023-03-19T02:37:52;101333;;;27.16;41.61
70198;BME280;57582;-34.876;138.628;2023-03-19T02:40:55;101329;;;26.87;41.58
70198;BME280;57582;-34.876;138.628;2023-03-19T02:43:51;101319;;;26.82;42.37
70198;BME280;57582;-34.876;138.628;2023-03-19T02:46:51;101319;;;26.76;41.30
70198;BME280;57582;-34.876;138.628;2023-03-19T02:49:52;101313;;;26.80;42.00
70198;BME280;57582;-34.876;138.628;2023-03-19T02:52:51;101316;;;26.99;42.00
70198;BME280;57582;-34.876;138.628;2023-03-19T02:55:51;101305;;;26.97;42.13
70198;BME280;57582;-34.876;138.628;2023-03-19T02:58:51;101317;;;26.61;42.24
70198;BME280;57582;-34.876;138.628;2023-03-19T03:01:52;101321;;;27.12;42.58
70198;BME280;57582;-34.876;138.628;2023-03-19T03:04:52;101317;;;27.63;41.52
70198;BME280;57582;-34.876;138.628;2023-03-19T03:07:51;101321;;;27.97;41.45
70198;BME280;57582;-34.876;138.628;2023-03-19T03:10:51;101319;;;28.07;39.23
70198;BME280;57582;-34.876;138.628;2023-03-19T03:13:52;101322;;;27.99;40.09
70198;BME280;57582;-34.876;138.628;2023-03-19T03:16:51;101319;;;27.91;40.06
70198;BME280;57582;-34.876;138.628;2023-03-19T03:19:51;101317;;;27.65;40.03
70198;BME280;57582;-34.876;138.628;2023-03-19T03:22:51;101314;;;26.97;42.06
70198;BME280;57582;-34.876;138.628;2023-03-19T03:25:51;101316;;;27.32;40.96
70198;BME280;57582;-34.876;138.628;2023-03-19T03:28:52;101308;;;27.63;40.74
70198;BME280;57582;-34.876;138.628;2023-03-19T03:31:51;101318;;;27.72;40.97
70198;BME280;57582;-34.876;138.628;2023-03-19T03:34:51;101315;;;27.90;39.50
70198;BME280;57582;-34.876;138.628;2023-03-19T03:37:51;101314;;;28.09;39.26
70198;BME280;57582;-34.876;138.628;2023-03-19T03:40:52;101315;;;28.20;39.47
70198;BME280;57582;-34.876;138.628;2023-03-19T03:43:51;101329;;;28.29;39.16
70198;BME280;57582;-34.876;138.628;2023-03-19T03:46:51;101304;;;28.51;37.77
70198;BME280;57582;-34.876;138.628;2023-03-19T03:49:51;101308;;;28.48;38.40
70198;BME280;57582;-34.876;138.628;2023-03-19T03:52:51;101305;;;28.07;38.40
70198;BME280;57582;-34.876;138.628;2023-03-19T03:55:51;101302;;;27.64;40.43
70198;BME280;57582;-34.876;138.628;2023-03-19T03:58:51;101298;;;27.83;40.07
70198;BME280;57582;-34.876;138.628;2023-03-19T04:01:51;101295;;;27.62;39.72
70198;BME280;57582;-34.876;138.628;2023-03-19T04:04:52;101299;;;27.77;40.04
70198;BME280;57582;-34.876;138.628;2023-03-19T04:07:51;101301;;;27.85;39.51
70198;BME280;57582;-34.876;138.628;2023-03-19T04:10:51;101307;;;27.88;39.94
70198;BME280;57582;-34.876;138.628;2023-03-19T04:13:53;101311;;;28.11;38.70
70198;BME280;57582;-34.876;138.628;2023-03-19T04:16:52;101299;;;28.34;38.33
70198;BME280;57582;-34.876;138.628;2023-03-19T04:19:51;101297;;;28.44;37.93
70198;BME280;57582;-34.876;138.628;2023-03-19T04:22:51;101304;;;27.64;38.58
70198;BME280;57582;-34.876;138.628;2023-03-19T04:25:51;101293;;;27.68;39.47
70198;BME280;57582;-34.876;138.628;2023-03-19T04:28:52;101287;;;27.80;38.98
70198;BME280;57582;-34.876;138.628;2023-03-19T04:31:51;101288;;;27.58;39.22
70198;BME280;57582;-34.876;138.628;2023-03-19T04:34:51;101293;;;27.20;40.19
70198;BME280;57582;-34.876;138.628;2023-03-19T04:37:51;101290;;;27.12;41.42
70198;BME280;57582;-34.876;138.628;2023-03-19T04:40:52;101281;;;27.27;40.26
70198;BME280;57582;-34.876;138.628;2023-03-19T04:43:51;101288;;;27.50;39.46
70198;BME280;57582;-34.876;138.628;2023-03-19T04:46:51;101282;;;27.77;39.19
70198;BME280;57582;-34.876;138.628;2023-03-19T04:49:52;101282;;;27.74;38.47
70198;BME280;57582;-34.876;138.628;2023-03-19T04:52:52;101287;;;27.70;39.22
70198;BME280;57582;-34.876;138.628;2023-03-19T04:55:51;101293;;;26.68;40.26
70198;BME280;57582;-34.876;138.628;2023-03-19T04:58:51;101291;;;26.92;40.53
70198;BME280;57582;-34.876;138.628;2023-03-19T05:01:52;101292;;;27.16;39.74
70198;BME280;57582;-34.876;138.628;2023-03-19T05:04:52;101279;;;27.35;38.87
70198;BME280;57582;-34.876;138.628;2023-03-19T05:07:51;101287;;;27.46;39.09
70198;BME280;57582;-34.876;138.628;2023-03-19T05:10:51;101295;;;27.58;39.52
70198;BME280;57582;-34.876;138.628;2023-03-19T05:13:52;101297;;;27.59;40.10
70198;BME280;57582;-34.876;138.628;2023-03-19T05:16:52;101289;;;27.49;39.20
70198;BME280;57582;-34.876;138.628;2023-03-19T05:19:51;101302;;;27.69;38.91
70198;BME280;57582;-34.876;138.628;2023-03-19T05:22:51;101297;;;27.69;38.24
70198;BME280;57582;-34.876;138.628;2023-03-19T05:25:52;101310;;;27.77;38.31
70198;BME280;57582;-34.876;138.628;2023-03-19T05:28:52;101298;;;27.80;38.35
70198;BME280;57582;-34.876;138.628;2023-03-19T05:31:51;101298;;;27.95;37.73
70198;BME280;57582;-34.876;138.628;2023-03-19T05:34:51;101290;;;27.95;37.73
70198;BME280;57582;-34.876;138.628;2023-03-19T05:37:52;101299;;;28.07;38.18
70198;BME280;57582;-34.876;138.628;2023-03-19T05:40:52;101289;;;27.79;37.51
70198;BME280;57582;-34.876;138.628;2023-03-19T05:43:51;101302;;;27.72;38.44
70198;BME280;57582;-34.876;138.628;2023-03-19T05:46:51;101311;;;27.66;38.53
70198;BME280;57582;-34.876;138.628;2023-03-19T05:49:52;101310;;;27.53;38.43
70198;BME280;57582;-34.876;138.628;2023-03-19T05:52:52;101321;;;27.52;38.48
70198;BME280;57582;-34.876;138.628;2023-03-19T05:55:51;101329;;;27.58;38.56
70198;BME280;57582;-34.876;138.628;2023-03-19T05:58:51;101334;;;27.58;37.66
70198;BME280;57582;-34.876;138.628;2023-03-19T06:01:52;101334;;;27.28;38.11
70198;BME280;57582;-34.876;138.628;2023-03-19T06:04:52;101340;;;27.00;38.58
70198;BME280;57582;-34.876;138.628;2023-03-19T06:07:51;101343;;;27.17;38.21
70198;BME280;57582;-34.876;138.628;2023-03-19T06:10:51;101335;;;27.19;37.68
70198;BME280;57582;-34.876;138.628;2023-03-19T06:13:52;101333;;;27.24;37.80
70198;BME280;57582;-34.876;138.628;2023-03-19T06:16:52;101337;;;27.33;37.27
70198;BME280;57582;-34.876;138.628;2023-03-19T06:19:51;101339;;;27.40;37.88
70198;BME280;57582;-34.876;138.628;2023-03-19T06:22:52;101354;;;27.37;36.84
70198;BME280;57582;-34.876;138.628;2023-03-19T06:25:52;101358;;;26.54;38.67
70198;BME280;57582;-34.876;138.628;2023-03-19T06:28:52;101353;;;25.76;39.66
70198;BME280;57582;-34.876;138.628;2023-03-19T06:31:51;101340;;;25.65;40.23
70198;BME280;57582;-34.876;138.628;2023-03-19T06:34:51;101332;;;25.60;41.17
70198;BME280;57582;-34.876;138.628;2023-03-19T06:37:52;101332;;;25.67;41.18
70198;BME280;57582;-34.876;138.628;2023-03-19T06:40:52;101351;;;25.65;40.97
70198;BME280;57582;-34.876;138.628;2023-03-19T06:43:51;101369;;;25.46;41.01
70198;BME280;57582;-34.876;138.628;2023-03-19T06:46:51;101357;;;25.49;40.94
70198;BME280;57582;-34.876;138.628;2023-03-19T06:49:52;101366;;;25.49;40.84
70198;BME280;57582;-34.876;138.628;2023-03-19T06:52:52;101373;;;25.25;41.04
70198;BME280;57582;-34.876;138.628;2023-03-19T06:55:52;101369;;;25.31;41.32
70198;BME280;57582;-34.876;138.628;2023-03-19T06:58:51;101376;;;25.33;41.11
70198;BME280;57582;-34.876;138.628;2023-03-19T07:01:52;101367;;;25.20;41.39
70198;BME280;57582;-34.876;138.628;2023-03-19T07:04:52;101384;;;25.11;41.49
70198;BME280;57582;-34.876;138.628;2023-03-19T07:07:51;101390;;;25.10;41.61
70198;BME280;57582;-34.876;138.628;2023-03-19T07:10:51;101399;;;24.98;41.47
70198;BME280;57582;-34.876;138.628;2023-03-19T07:13:52;101408;;;24.88;41.40
70198;BME280;57582;-34.876;138.628;2023-03-19T07:16:52;101395;;;24.87;41.73
70198;BME280;57582;-34.876;138.628;2023-03-19T07:19:51;101402;;;24.83;41.32
70198;BME280;57582;-34.876;138.628;2023-03-19T07:22:52;101411;;;24.83;41.31
70198;BME280;57582;-34.876;138.628;2023-03-19T07:25:52;101409;;;24.90;41.47
70198;BME280;57582;-34.876;138.628;2023-03-19T07:28:52;101398;;;25.03;40.96
70198;BME280;57582;-34.876;138.628;2023-03-19T07:31:52;101347;;;24.83;40.63
70198;BME280;57582;-34.876;138.628;2023-03-19T07:34:52;101402;;;25.23;40.11
70198;BME280;57582;-34.876;138.628;2023-03-19T07:37:52;101410;;;25.27;40.10
70198;BME280;57582;-34.876;138.628;2023-03-19T07:40:52;101413;;;25.26;39.58
70198;BME280;57582;-34.876;138.628;2023-03-19T07:43:52;101421;;;25.32;39.53
70198;BME280;57582;-34.876;138.628;2023-03-19T07:46:52;101408;;;25.08;39.15
70198;BME280;57582;-34.876;138.628;2023-03-19T07:49:52;101426;;;25.10;39.99
70198;BME280;57582;-34.876;138.628;2023-03-19T07:52:52;101435;;;24.49;40.14
70198;BME280;57582;-34.876;138.628;2023-03-19T07:55:52;101440;;;24.36;40.42
70198;BME280;57582;-34.876;138.628;2023-03-19T07:58:52;101449;;;24.43;40.43
70198;BME280;57582;-34.876;138.628;2023-03-19T08:01:52;101450;;;23.82;41.15
70198;BME280;57582;-34.876;138.628;2023-03-19T08:04:52;101446;;;23.62;41.74
70198;BME280;57582;-34.876;138.628;2023-03-19T08:07:52;101434;;;23.58;42.09
70198;BME280;57582;-34.876;138.628;2023-03-19T08:10:52;101447;;;23.19;42.64
70198;BME280;57582;-34.876;138.628;2023-03-19T08:13:52;101449;;;22.96;43.03
70198;BME280;57582;-34.876;138.628;2023-03-19T08:16:52;101456;;;22.93;43.20
70198;BME280;57582;-34.876;138.628;2023-03-19T08:19:52;101457;;;22.91;43.43
70198;BME280;57582;-34.876;138.628;2023-03-19T08:22:52;101460;;;22.84;43.23
70198;BME280;57582;-34.876;138.628;2023-03-19T08:25:52;101468;;;22.59;43.72
70198;BME280;57582;-34.876;138.628;2023-03-19T08:28:52;101465;;;22.46;43.87
70198;BME280;57582;-34.876;138.628;2023-03-19T08:31:52;101467;;;22.26;44.46
70198;BME280;57582;-34.876;138.628;2023-03-19T08:34:52;101467;;;22.34;44.21
70198;BME280;57582;-34.876;138.628;2023-03-19T08:37:52;101470;;;22.53;43.83
70198;BME280;57582;-34.876;138.628;2023-03-19T08:40:54;101484;;;22.67;43.67
70198;BME280;57582;-34.876;138.628;2023-03-19T08:43:52;101495;;;22.81;43.33
70198;BME280;57582;-34.876;138.628;2023-03-19T08:46:52;101494;;;22.92;42.94
70198;BME280;57582;-34.876;138.628;2023-03-19T08:49:52;101507;;;22.93;42.77
70198;BME280;57582;-34.876;138.628;2023-03-19T08:52:52;101504;;;22.99;42.69
70198;BME280;57582;-34.876;138.628;2023-03-19T08:55:52;101505;;;23.03;42.80
70198;BME280;57582;-34.876;138.628;2023-03-19T08:58:52;101497;;;23.01;42.74
70198;BME280;57582;-34.876;138.628;2023-03-19T09:01:53;101506;;;23.07;42.88
70198;BME280;57582;-34.876;138.628;2023-03-19T09:04:52;101501;;;22.50;44.09
70198;BME280;57582;-34.876;138.628;2023-03-19T09:07:52;101508;;;21.93;45.68
70198;BME280;57582;-34.876;138.628;2023-03-19T09:10:52;101542;;;21.90;45.82
70198;BME280;57582;-34.876;138.628;2023-03-19T09:13:53;101568;;;21.99;45.83
70198;BME280;57582;-34.876;138.628;2023-03-19T09:16:52;101571;;;22.04;45.86
70198;BME280;57582;-34.876;138.628;2023-03-19T09:19:52;101575;;;22.14;45.76
70198;BME280;57582;-34.876;138.628;2023-03-19T09:22:52;101576;;;22.30;45.38
70198;BME280;57582;-34.876;138.628;2023-03-19T09:25:52;101593;;;22.34;45.24
70198;BME280;57582;-34.876;138.628;2023-03-19T09:28:52;101608;;;22.43;45.10
70198;BME280;57582;-34.876;138.628;2023-03-19T09:31:52;101622;;;21.76;46.94
70198;BME280;57582;-34.876;138.628;2023-03-19T09:34:52;101630;;;21.87;46.65
70198;BME280;57582;-34.876;138.628;2023-03-19T09:37:52;101626;;;22.01;46.58
70198;BME280;57582;-34.876;138.628;2023-03-19T09:41:26;101615;;;22.16;46.17
70198;BME280;57582;-34.876;138.628;2023-03-19T09:49:53;101576;;;22.31;45.64
70198;BME280;57582;-34.876;138.628;2023-03-19T09:52:55;101554;;;22.10;46.23
70198;BME280;57582;-34.876;138.628;2023-03-19T09:55:52;101560;;;22.04;46.56
70198;BME280;57582;-34.876;138.628;2023-03-19T09:58:52;101565;;;22.11;46.59
70198;BME280;57582;-34.876;138.628;2023-03-19T10:01:56;101564;;;22.08;46.51
70198;BME280;57582;-34.876;138.628;2023-03-19T10:05:02;101565;;;21.86;46.93
70198;BME280;57582;-34.876;138.628;2023-03-19T10:11:03;101581;;;21.52;47.57
70198;BME280;57582;-34.876;138.628;2023-03-19T10:16:53;101580;;;21.06;48.47
70198;BME280;57582;-34.876;138.628;2023-03-19T10:20:08;101594;;;20.92;48.80
70198;BME280;57582;-34.876;138.628;2023-03-19T10:22:53;101578;;;20.76;49.14
70198;BME280;57582;-34.876;138.628;2023-03-19T10:25:53;101584;;;20.79;49.05
70198;BME280;57582;-34.876;138.628;2023-03-19T10:29:09;101570;;;20.73;49.57
70198;BME280;57582;-34.876;138.628;2023-03-19T10:31:57;101579;;;20.60;50.11
70198;BME280;57582;-34.876;138.628;2023-03-19T10:34:52;101584;;;20.42;50.43
70198;BME280;57582;-34.876;138.628;2023-03-19T10:37:52;101577;;;20.39;50.65
70198;BME280;57582;-34.876;138.628;2023-03-19T10:40:55;101578;;;20.32;50.77
70198;BME280;57582;-34.876;138.628;2023-03-19T10:43:53;101610;;;20.38;50.63
70198;BME280;57582;-34.876;138.628;2023-03-19T10:46:52;101623;;;20.26;50.94
70198;BME280;57582;-34.876;138.628;2023-03-19T10:49:54;101637;;;20.37;50.73
70198;BME280;57582;-34.876;138.628;2023-03-19T10:52:59;101647;;;20.31;50.75
70198;BME280;57582;-34.876;138.628;2023-03-19T10:55:54;101642;;;19.89;52.12
70198;BME280;57582;-34.876;138.628;2023-03-19T10:58:57;101641;;;20.10;51.76
70198;BME280;57582;-34.876;138.628;2023-03-19T11:01:56;101638;;;20.28;51.24
70198;BME280;57582;-34.876;138.628;2023-03-19T11:05:05;101665;;;20.35;51.07
70198;BME280;57582;-34.876;138.628;2023-03-19T11:07:56;101674;;;20.41;50.60
70198;BME280;57582;-34.876;138.628;2023-03-19T11:10:52;101671;;;20.53;49.94
70198;BME280;57582;-34.876;138.628;2023-03-19T11:13:52;101676;;;20.46;50.10
70198;BME280;57582;-34.876;138.628;2023-03-19T11:19:53;101673;;;20.24;50.27
70198;BME280;57582;-34.876;138.628;2023-03-19T11:22:52;101674;;;20.38;50.16
70198;BME280;57582;-34.876;138.628;2023-03-19T11:25:53;101671;;;20.64;49.61
70198;BME280;57582;-34.876;138.628;2023-03-19T11:28:53;101669;;;20.89;49.04
70198;BME280;57582;-34.876;138.628;2023-03-19T11:31:55;101663;;;21.05;48.59
70198;BME280;57582;-34.876;138.628;2023-03-19T11:34:57;101668;;;21.30;47.99
70198;BME280;57582;-34.876;138.628;2023-03-19T11:37:54;101676;;;21.46;47.53
70198;BME280;57582;-34.876;138.628;2023-03-19T11:43:53;101693;;;21.68;47.04
70198;BME280;57582;-34.876;138.628;2023-03-19T11:46:59;101709;;;21.75;46.78
70198;BME280;57582;-34.876;138.628;2023-03-19T11:52:58;101720;;;21.71;46.47
70198;BME280;57582;-34.876;138.628;2023-03-19T12:01:59;101732;;;21.96;45.96
70198;BME280;57582;-34.876;138.628;2023-03-19T12:14:03;101719;;;21.13;48.25
70198;BME280;57582;-34.876;138.628;2023-03-19T12:16:57;101725;;;20.04;50.80
70198;BME280;57582;-34.876;138.628;2023-03-19T12:26:01;101690;;;19.61;52.33
70198;BME280;57582;-34.876;138.628;2023-03-19T12:31:56;101694;;;19.78;51.92
70198;BME280;57582;-34.876;138.628;2023-03-19T12:34:56;101702;;;19.83;51.84
70198;BME280;57582;-34.876;138.628;2023-03-19T12:49:54;101736;;;20.02;51.44
70198;BME280;57582;-34.876;138.628;2023-03-19T12:52:53;101746;;;20.27;51.03
70198;BME280;57582;-34.876;138.628;2023-03-19T12:55:52;101749;;;20.29;50.61
70198;BME280;57582;-34.876;138.628;2023-03-19T12:58:55;101760;;;20.14;51.04
70198;BME280;57582;-34.876;138.628;2023-03-19T13:01:56;101751;;;20.25;50.84
70198;BME280;57582;-34.876;138.628;2023-03-19T13:04:57;101745;;;19.94;51.43
70198;BME280;57582;-34.876;138.628;2023-03-19T13:10:52;101738;;;19.95;51.72
70198;BME280;57582;-34.876;138.628;2023-03-19T13:13:57;101744;;;19.85;51.90
70198;BME280;57582;-34.876;138.628;2023-03-19T13:19:52;101716;;;18.98;54.42
70198;BME280;57582;-34.876;138.628;2023-03-19T13:22:54;101703;;;19.17;54.51
70198;BME280;57582;-34.876;138.628;2023-03-19T13:25:53;101708;;;19.49;53.55
70198;BME280;57582;-34.876;138.628;2023-03-19T13:28:55;101713;;;19.90;52.90
70198;BME280;57582;-34.876;138.628;2023-03-19T13:31:58;101715;;;20.25;51.67
70198;BME280;57582;-34.876;138.628;2023-03-19T13:35:07;101708;;;20.60;50.81
70198;BME280;57582;-34.876;138.628;2023-03-19T13:37:55;101711;;;20.88;50.21
70198;BME280;57582;-34.876;138.628;2023-03-19T13:40:53;101717;;;21.18;48.55
70198;BME280;57582;-34.876;138.628;2023-03-19T13:43:53;101734;;;21.35;48.33
70198;BME280;57582;-34.876;138.628;2023-03-19T13:46:52;101734;;;21.48;47.96
70198;BME280;57582;-34.876;138.628;2023-03-19T13:50:02;101716;;;21.21;48.22
70198;BME280;57582;-34.876;138.628;2023-03-19T13:52:55;101740;;;20.37;49.60
70198;BME280;57582;-34.876;138.628;2023-03-19T13:55:53;101745;;;19.78;51.06
70198;BME280;57582;-34.876;138.628;2023-03-19T13:59:20;101741;;;19.28;52.66
70198;BME280;57582;-34.876;138.628;2023-03-19T14:01:53;101704;;;19.13;52.38
70198;BME280;57582;-34.876;138.628;2023-03-19T14:05:01;101735;;;19.03;53.10
70198;BME280;57582;-34.876;138.628;2023-03-19T14:07:53;101743;;;18.95;53.70
70198;BME280;57582;-34.876;138.628;2023-03-19T14:10:54;101739;;;18.37;55.44
70198;BME280;57582;-34.876;138.628;2023-03-19T14:13:52;101712;;;18.41;55.54
70198;BME280;57582;-34.876;138.628;2023-03-19T14:16:52;101701;;;18.63;55.05
70198;BME280;57582;-34.876;138.628;2023-03-19T14:19:52;101700;;;18.48;55.43
70198;BME280;57582;-34.876;138.628;2023-03-19T14:25:55;101676;;;18.83;54.46
70198;BME280;57582;-34.876;138.628;2023-03-19T14:28:54;101709;;;18.60;55.05
70198;BME280;57582;-34.876;138.628;2023-03-19T14:31:54;101742;;;18.32;55.77
70198;BME280;57582;-34.876;138.628;2023-03-19T14:34:52;101737;;;18.00;56.92
70198;BME280;57582;-34.876;138.628;2023-03-19T14:37:53;101748;;;18.20;56.54
70198;BME280;57582;-34.876;138.628;2023-03-19T14:40:52;101710;;;17.86;57.62
70198;BME280;57582;-34.876;138.628;2023-03-19T14:55:52;101689;;;18.10;56.57
70198;BME280;57582;-34.876;138.628;2023-03-19T14:58:53;101674;;;18.05;56.87
70198;BME280;57582;-34.876;138.628;2023-03-19T15:01:53;101679;;;17.62;58.21
70198;BME280;57582;-34.876;138.628;2023-03-19T15:04:53;101673;;;17.21;59.74
70198;BME280;57582;-34.876;138.628;2023-03-19T15:07:55;101686;;;17.31;59.39
70198;BME280;57582;-34.876;138.628;2023-03-19T15:17:03;101708;;;17.28;58.10
70198;BME280;57582;-34.876;138.628;2023-03-19T15:19:52;101703;;;17.28;57.76
70198;BME280;57582;-34.876;138.628;2023-03-19T15:22:54;101715;;;17.29;57.32
70198;BME280;57582;-34.876;138.628;2023-03-19T15:25:54;101697;;;17.29;57.14
70198;BME280;57582;-34.876;138.628;2023-03-19T15:28:53;101706;;;17.21;57.03
70198;BME280;57582;-34.876;138.628;2023-03-19T15:31:52;101701;;;17.23;56.99
70198;BME280;57582;-34.876;138.628;2023-03-19T15:34:55;101699;;;17.29;56.55
70198;BME280;57582;-34.876;138.628;2023-03-19T15:37:53;101689;;;17.16;56.85
70198;BME280;57582;-34.876;138.628;2023-03-19T15:40:53;101671;;;17.23;56.26
70198;BME280;57582;-34.876;138.628;2023-03-19T15:43:52;101676;;;17.47;55.38
70198;BME280;57582;-34.876;138.628;2023-03-19T15:46:52;101672;;;17.60;54.83
70198;BME280;57582;-34.876;138.628;2023-03-19T15:49:57;101664;;;17.42;54.94
70198;BME280;57582;-34.876;138.628;2023-03-19T15:52:54;101668;;;17.32;54.89
70198;BME280;57582;-34.876;138.628;2023-03-19T15:55:53;101664;;;17.08;55.25
70198;BME280;57582;-34.876;138.628;2023-03-19T15:58:54;101653;;;16.98;55.40
70198;BME280;57582;-34.876;138.628;2023-03-19T16:01:55;101645;;;16.63;56.35
70198;BME280;57582;-34.876;138.628;2023-03-19T16:04:53;101637;;;16.56;56.67
70198;BME280;57582;-34.876;138.628;2023-03-19T16:10:52;101625;;;16.52;56.30
70198;BME280;57582;-34.876;138.628;2023-03-19T16:13:55;101642;;;16.72;54.84
70198;BME280;57582;-34.876;138.628;2023-03-19T16:17:01;101648;;;16.79;55.11
70198;BME280;57582;-34.876;138.628;2023-03-19T16:19:53;101635;;;16.42;56.36
70198;BME280;57582;-34.876;138.628;2023-03-19T16:22:53;101644;;;16.38;56.67
70198;BME280;57582;-34.876;138.628;2023-03-19T16:25:53;101642;;;16.33;56.92
70198;BME280;57582;-34.876;138.628;2023-03-19T16:28:55;101645;;;16.51;56.25
70198;BME280;57582;-34.876;138.628;2023-03-19T16:31:57;101661;;;16.78;55.46
70198;BME280;57582;-34.876;138.628;2023-03-19T16:34:54;101664;;;16.71;55.55
70198;BME280;57582;-34.876;138.628;2023-03-19T16:37:53;101658;;;16.80;55.01
70198;BME280;57582;-34.876;138.628;2023-03-19T16:43:52;101655;;;17.34;53.41
70198;BME280;57582;-34.876;138.628;2023-03-19T16:46:52;101644;;;17.53;52.80
70198;BME280;57582;-34.876;138.628;2023-03-19T16:49:53;101644;;;17.64;52.27
70198;BME280;57582;-34.876;138.628;2023-03-19T16:52:53;101658;;;17.65;52.18
70198;BME280;57582;-34.876;138.628;2023-03-19T16:55:53;101647;;;17.69;51.91
70198;BME280;57582;-34.876;138.628;2023-03-19T16:58:52;101642;;;17.73;51.64
70198;BME280;57582;-34.876;138.628;2023-03-19T17:01:53;101634;;;17.73;51.88
70198;BME280;57582;-34.876;138.628;2023-03-19T17:04:53;101652;;;17.49;52.36
70198;BME280;57582;-34.876;138.628;2023-03-19T17:07:53;101633;;;17.20;53.19
70198;BME280;57582;-34.876;138.628;2023-03-19T17:10:53;101618;;;17.24;53.16
70198;BME280;57582;-34.876;138.628;2023-03-19T17:13:53;101631;;;17.31;53.05
70198;BME280;57582;-34.876;138.628;2023-03-19T17:16:53;101632;;;17.41;52.54
70198;BME280;57582;-34.876;138.628;2023-03-19T17:19:52;101636;;;17.33;52.79